sensor_id;sensor_type;location;lat;lon;timestamp;temperature;humidity
30889;DHT22;51092;50.874;7.024;2023-01-13T00:00:26;12.00;99.90
30889;DHT22;51092;50.874;7.024;2023-01-13T00:01:27;12.00;99.90
30889;DHT22;51092;50.874;7.024;2023-01-13T00:02:30;12.00;99.90
30889;DHT22;51092;50.874;7.024;2023-01-13T00:03:32;12.00;99.90
30889;DHT22;51092;50.874;7.024;2023-01-13T00:04:35;12.00;99.90
30889;DHT22;51092;50.874;7.024;2023-01-13T00:05:38;12.00;99.90
30889;DHT22;51092;50.874;7.024;2023-01-13T00:06:40;12.00;99.90
30889;DHT22;51092;50.874;7.024;2023-01-13T00:07:41;12.00;99.90
30889;DHT22;51092;50.874;7.024;2023-01-13T00:08:47;12.00;99.90
30889;DHT22;51092;50.874;7.024;2023-01-13T00:09:48;12.10;99.90
30889;DHT22;51092;50.874;7.024;2023-01-13T00:10:50;12.10;99.90
30889;DHT22;51092;50.874;7.024;2023-01-13T00:11:52;12.10;99.90
30889;DHT22;51092;50.874;7.024;2023-01-13T00:12:54;12.10;99.90
30889;DHT22;51092;50.874;7.024;2023-01-13T00:13:56;12.10;99.90
30889;DHT22;51092;50.874;7.024;2023-01-13T00:14:58;12.10;99.90
30889;DHT22;51092;50.874;7.024;2023-01-13T00:16:03;12.10;99.90
30889;DHT22;51092;50.874;7.024;2023-01-13T00:17:05;12.10;99.90
30889;DHT22;51092;50.874;7.024;2023-01-13T00:18:07;12.10;99.90
30889;DHT22;51092;50.874;7.024;2023-01-13T00:19:09;12.10;99.90
30889;DHT22;51092;50.874;7.024;2023-01-13T00:20:11;12.00;99.90
30889;DHT22;51092;50.874;7.024;2023-01-13T00:21:17;12.00;99.90
30889;DHT22;51092;50.874;7.024;2023-01-13T00:22:19;12.10;99.90
30889;DHT22;51092;50.874;7.024;2023-01-13T00:23:21;12.10;99.90
30889;DHT22;51092;50.874;7.024;2023-01-13T00:24:24;12.20;99.90
30889;DHT22;51092;50.874;7.024;2023-01-13T00:25:26;12.20;99.90
30889;DHT22;51092;50.874;7.024;2023-01-13T00:26:28;12.20;99.90
30889;DHT22;51092;50.874;7.024;2023-01-13T00:27:33;12.20;99.90
30889;DHT22;51092;50.874;7.024;2023-01-13T00:28:35;12.20;99.90
30889;DHT22;51092;50.874;7.024;2023-01-13T00:29:37;12.10;99.90
30889;DHT22;51092;50.874;7.024;2023-01-13T00:30:39;12.10;99.90
30889;DHT22;51092;50.874;7.024;2023-01-13T00:31:41;12.10;99.90
30889;DHT22;51092;50.874;7.024;2023-01-13T00:32:43;12.10;99.90
30889;DHT22;51092;50.874;7.024;2023-01-13T00:33:45;12.10;99.90
30889;DHT22;51092;50.874;7.024;2023-01-13T00:34:47;12.10;99.90
30889;DHT22;51092;50.874;7.024;2023-01-13T00:35:54;12.20;99.90
30889;DHT22;51092;50.874;7.024;2023-01-13T00:36:57;12.20;99.90
30889;DHT22;51092;50.874;7.024;2023-01-13T00:38:00;12.20;99.90
30889;DHT22;51092;50.874;7.024;2023-01-13T00:39:01;12.10;99.90
30889;DHT22;51092;50.874;7.024;2023-01-13T00:40:05;12.10;99.90
30889;DHT22;51092;50.874;7.024;2023-01-13T00:41:09;12.00;99.90
30889;DHT22;51092;50.874;7.024;2023-01-13T00:42:12;11.90;99.90
30889;DHT22;51092;50.874;7.024;2023-01-13T00:43:34;11.90;99.90
30889;DHT22;51092;50.874;7.024;2023-01-13T00:44:35;11.80;99.90
30889;DHT22;51092;50.874;7.024;2023-01-13T00:45:37;11.80;99.90
30889;DHT22;51092;50.874;7.024;2023-01-13T00:46:40;11.70;99.90
30889;DHT22;51092;50.874;7.024;2023-01-13T00:47:41;11.70;99.90
30889;DHT22;51092;50.874;7.024;2023-01-13T00:48:43;11.70;99.90
30889;DHT22;51092;50.874;7.024;2023-01-13T00:49:44;11.60;99.90
30889;DHT22;51092;50.874;7.024;2023-01-13T00:50:53;11.60;99.90
30889;DHT22;51092;50.874;7.024;2023-01-13T00:51:54;11.60;99.90
30889;DHT22;51092;50.874;7.024;2023-01-13T00:53:00;11.50;99.90
30889;DHT22;51092;50.874;7.024;2023-01-13T00:54:01;11.50;99.90
30889;DHT22;51092;50.874;7.024;2023-01-13T00:55:04;11.50;99.90
30889;DHT22;51092;50.874;7.024;2023-01-13T00:56:08;11.40;99.90
30889;DHT22;51092;50.874;7.024;2023-01-13T00:57:17;11.40;99.90
30889;DHT22;51092;50.874;7.024;2023-01-13T00:58:19;11.40;99.90
30889;DHT22;51092;50.874;7.024;2023-01-13T00:59:24;11.30;99.90
30889;DHT22;51092;50.874;7.024;2023-01-13T01:00:25;11.30;99.90
30889;DHT22;51092;50.874;7.024;2023-01-13T01:01:28;11.30;99.90
30889;DHT22;51092;50.874;7.024;2023-01-13T01:02:29;11.20;99.90
30889;DHT22;51092;50.874;7.024;2023-01-13T01:03:31;11.20;99.90
30889;DHT22;51092;50.874;7.024;2023-01-13T01:04:32;11.10;99.90
30889;DHT22;51092;50.874;7.024;2023-01-13T01:05:34;11.10;99.90
30889;DHT22;51092;50.874;7.024;2023-01-13T01:06:35;11.00;99.90
30889;DHT22;51092;50.874;7.024;2023-01-13T01:07:37;10.90;99.90
30889;DHT22;51092;50.874;7.024;2023-01-13T01:08:41;10.80;99.90
30889;DHT22;51092;50.874;7.024;2023-01-13T01:09:44;10.70;99.90
30889;DHT22;51092;50.874;7.024;2023-01-13T01:10:45;10.60;99.90
30889;DHT22;51092;50.874;7.024;2023-01-13T01:11:48;10.60;99.90
30889;DHT22;51092;50.874;7.024;2023-01-13T01:12:49;10.60;99.90
30889;DHT22;51092;50.874;7.024;2023-01-13T01:13:54;10.60;99.90
30889;DHT22;51092;50.874;7.024;2023-01-13T01:14:56;10.60;99.90
30889;DHT22;51092;50.874;7.024;2023-01-13T01:15:58;10.60;99.90
30889;DHT22;51092;50.874;7.024;2023-01-13T01:17:00;10.60;99.90
30889;DHT22;51092;50.874;7.024;2023-01-13T01:18:02;10.70;99.90
30889;DHT22;51092;50.874;7.024;2023-01-13T01:19:04;10.70;99.90
30889;DHT22;51092;50.874;7.024;2023-01-13T01:20:08;10.80;99.90
30889;DHT22;51092;50.874;7.024;2023-01-13T01:21:10;10.80;99.90
30889;DHT22;51092;50.874;7.024;2023-01-13T01:22:13;10.90;99.90
30889;DHT22;51092;50.874;7.024;2023-01-13T01:23:15;10.90;99.90
30889;DHT22;51092;50.874;7.024;2023-01-13T01:24:18;10.90;99.90
30889;DHT22;51092;50.874;7.024;2023-01-13T01:25:20;11.00;99.90
30889;DHT22;51092;50.874;7.024;2023-01-13T01:26:24;11.00;99.90
30889;DHT22;51092;50.874;7.024;2023-01-13T01:27:26;11.10;99.90
30889;DHT22;51092;50.874;7.024;2023-01-13T01:28:28;11.10;99.90
30889;DHT22;51092;50.874;7.024;2023-01-13T01:29:30;11.10;99.90
30889;DHT22;51092;50.874;7.024;2023-01-13T01:30:32;11.20;96.90
30889;DHT22;51092;50.874;7.024;2023-01-13T01:31:34;11.20;97.70
30889;DHT22;51092;50.874;7.024;2023-01-13T01:32:37;11.20;97.00
30889;DHT22;51092;50.874;7.024;2023-01-13T01:33:38;11.30;93.60
30889;DHT22;51092;50.874;7.024;2023-01-13T01:34:42;11.30;93.20
30889;DHT22;51092;50.874;7.024;2023-01-13T01:35:44;11.40;93.80
30889;DHT22;51092;50.874;7.024;2023-01-13T01:36:45;11.30;94.10
30889;DHT22;51092;50.874;7.024;2023-01-13T01:37:48;11.40;93.30
30889;DHT22;51092;50.874;7.024;2023-01-13T01:38:49;11.40;93.60
30889;DHT22;51092;50.874;7.024;2023-01-13T01:39:53;11.40;91.30
30889;DHT22;51092;50.874;7.024;2023-01-13T01:40:55;11.40;91.10
30889;DHT22;51092;50.874;7.024;2023-01-13T01:41:57;11.40;91.00
30889;DHT22;51092;50.874;7.024;2023-01-13T01:43:19;11.40;90.00
30889;DHT22;51092;50.874;7.024;2023-01-13T01:44:54;11.40;90.00
30889;DHT22;51092;50.874;7.024;2023-01-13T01:45:57;11.40;90.00
30889;DHT22;51092;50.874;7.024;2023-01-13T01:46:58;11.40;90.00
30889;DHT22;51092;50.874;7.024;2023-01-13T01:48:02;11.40;89.90
30889;DHT22;51092;50.874;7.024;2023-01-13T01:49:09;11.40;89.40
30889;DHT22;51092;50.874;7.024;2023-01-13T01:50:13;11.40;89.70
30889;DHT22;51092;50.874;7.024;2023-01-13T01:51:15;11.30;89.80
30889;DHT22;51092;50.874;7.024;2023-01-13T01:52:21;11.30;90.40
30889;DHT22;51092;50.874;7.024;2023-01-13T01:53:25;11.20;90.20
30889;DHT22;51092;50.874;7.024;2023-01-13T01:54:39;11.10;91.60
30889;DHT22;51092;50.874;7.024;2023-01-13T01:55:44;10.90;93.00
30889;DHT22;51092;50.874;7.024;2023-01-13T01:56:47;10.80;93.30
30889;DHT22;51092;50.874;7.024;2023-01-13T01:57:52;10.70;97.20
30889;DHT22;51092;50.874;7.024;2023-01-13T01:58:56;10.50;99.90
30889;DHT22;51092;50.874;7.024;2023-01-13T01:59:58;10.20;99.90
30889;DHT22;51092;50.874;7.024;2023-01-13T02:01:01;10.00;99.90
30889;DHT22;51092;50.874;7.024;2023-01-13T02:02:03;9.80;99.90
30889;DHT22;51092;50.874;7.024;2023-01-13T02:03:06;9.70;99.90
30889;DHT22;51092;50.874;7.024;2023-01-13T02:04:13;9.60;99.90
30889;DHT22;51092;50.874;7.024;2023-01-13T02:05:16;9.50;99.90
30889;DHT22;51092;50.874;7.024;2023-01-13T02:06:18;9.50;99.90
30889;DHT22;51092;50.874;7.024;2023-01-13T02:07:23;9.50;99.90
30889;DHT22;51092;50.874;7.024;2023-01-13T02:08:26;9.50;99.90
30889;DHT22;51092;50.874;7.024;2023-01-13T02:09:29;9.50;99.90
30889;DHT22;51092;50.874;7.024;2023-01-13T02:10:32;9.50;99.90
30889;DHT22;51092;50.874;7.024;2023-01-13T02:11:36;9.40;99.90
30889;DHT22;51092;50.874;7.024;2023-01-13T02:12:58;9.50;99.90
30889;DHT22;51092;50.874;7.024;2023-01-13T02:14:01;9.40;99.90
30889;DHT22;51092;50.874;7.024;2023-01-13T02:15:05;9.30;99.90
30889;DHT22;51092;50.874;7.024;2023-01-13T02:16:14;9.30;99.90
30889;DHT22;51092;50.874;7.024;2023-01-13T02:17:23;9.30;99.90
30889;DHT22;51092;50.874;7.024;2023-01-13T02:18:35;9.50;99.90
30889;DHT22;51092;50.874;7.024;2023-01-13T02:20:03;9.50;99.90
30889;DHT22;51092;50.874;7.024;2023-01-13T02:21:41;9.50;99.90
30889;DHT22;51092;50.874;7.024;2023-01-13T02:25:05;9.70;99.90
30889;DHT22;51092;50.874;7.024;2023-01-13T02:26:28;9.80;99.90
30889;DHT22;51092;50.874;7.024;2023-01-13T02:29:09;9.90;99.90
30889;DHT22;51092;50.874;7.024;2023-01-13T02:30:36;9.80;99.90
30889;DHT22;51092;50.874;7.024;2023-01-13T02:32:04;9.80;99.90
30889;DHT22;51092;50.874;7.024;2023-01-13T02:33:23;9.80;99.90
30889;DHT22;51092;50.874;7.024;2023-01-13T02:34:35;9.80;99.90
30889;DHT22;51092;50.874;7.024;2023-01-13T02:35:46;9.70;99.90
30889;DHT22;51092;50.874;7.024;2023-01-13T02:36:55;9.80;99.90
30889;DHT22;51092;50.874;7.024;2023-01-13T02:38:00;9.80;99.90
30889;DHT22;51092;50.874;7.024;2023-01-13T02:39:05;9.80;99.90
30889;DHT22;51092;50.874;7.024;2023-01-13T02:40:14;9.80;99.90
30889;DHT22;51092;50.874;7.024;2023-01-13T02:41:23;9.90;99.90
30889;DHT22;51092;50.874;7.024;2023-01-13T02:42:47;9.90;99.90
30889;DHT22;51092;50.874;7.024;2023-01-13T02:44:09;10.00;99.90
30889;DHT22;51092;50.874;7.024;2023-01-13T02:45:14;10.00;99.90
30889;DHT22;51092;50.874;7.024;2023-01-13T02:46:24;10.00;99.90
30889;DHT22;51092;50.874;7.024;2023-01-13T02:47:29;10.00;99.90
30889;DHT22;51092;50.874;7.024;2023-01-13T02:48:34;10.00;99.90
30889;DHT22;51092;50.874;7.024;2023-01-13T02:49:39;10.00;99.90
30889;DHT22;51092;50.874;7.024;2023-01-13T02:50:47;10.00;99.90
30889;DHT22;51092;50.874;7.024;2023-01-13T02:51:51;10.10;99.90
30889;DHT22;51092;50.874;7.024;2023-01-13T02:52:59;10.00;98.60
30889;DHT22;51092;50.874;7.024;2023-01-13T02:54:05;10.10;99.30
30889;DHT22;51092;50.874;7.024;2023-01-13T02:55:12;10.00;99.60
30889;DHT22;51092;50.874;7.024;2023-01-13T02:56:15;10.10;99.20
30889;DHT22;51092;50.874;7.024;2023-01-13T02:57:19;10.10;96.00
30889;DHT22;51092;50.874;7.024;2023-01-13T02:58:24;10.10;95.50
30889;DHT22;51092;50.874;7.024;2023-01-13T02:59:29;10.10;96.30
30889;DHT22;51092;50.874;7.024;2023-01-13T03:00:31;10.10;94.20
30889;DHT22;51092;50.874;7.024;2023-01-13T03:01:36;10.10;93.80
30889;DHT22;51092;50.874;7.024;2023-01-13T03:02:38;10.10;93.20
30889;DHT22;51092;50.874;7.024;2023-01-13T03:03:40;10.10;92.40
30889;DHT22;51092;50.874;7.024;2023-01-13T03:04:46;10.00;92.90
30889;DHT22;51092;50.874;7.024;2023-01-13T03:05:52;10.00;92.50
30889;DHT22;51092;50.874;7.024;2023-01-13T03:07:00;10.00;92.50
30889;DHT22;51092;50.874;7.024;2023-01-13T03:08:15;10.00;92.20
30889;DHT22;51092;50.874;7.024;2023-01-13T03:09:21;10.10;91.60
30889;DHT22;51092;50.874;7.024;2023-01-13T03:10:47;10.00;91.90
30889;DHT22;51092;50.874;7.024;2023-01-13T03:12:06;10.00;91.50
30889;DHT22;51092;50.874;7.024;2023-01-13T03:13:24;10.00;92.10
30889;DHT22;51092;50.874;7.024;2023-01-13T03:14:34;10.00;92.40
30889;DHT22;51092;50.874;7.024;2023-01-13T03:15:45;10.00;91.60
30889;DHT22;51092;50.874;7.024;2023-01-13T03:16:58;10.00;91.70
30889;DHT22;51092;50.874;7.024;2023-01-13T03:18:13;10.00;92.00
30889;DHT22;51092;50.874;7.024;2023-01-13T03:19:25;10.00;91.80
30889;DHT22;51092;50.874;7.024;2023-01-13T03:20:33;10.00;92.10
30889;DHT22;51092;50.874;7.024;2023-01-13T03:21:41;10.00;92.10
30889;DHT22;51092;50.874;7.024;2023-01-13T03:22:50;10.00;92.00
30889;DHT22;51092;50.874;7.024;2023-01-13T03:23:58;10.00;92.10
30889;DHT22;51092;50.874;7.024;2023-01-13T03:25:08;10.00;92.00
30889;DHT22;51092;50.874;7.024;2023-01-13T03:26:14;10.00;92.10
30889;DHT22;51092;50.874;7.024;2023-01-13T03:27:24;10.00;92.30
30889;DHT22;51092;50.874;7.024;2023-01-13T03:28:29;10.10;91.70
30889;DHT22;51092;50.874;7.024;2023-01-13T03:29:35;10.10;92.50
30889;DHT22;51092;50.874;7.024;2023-01-13T03:30:40;10.10;92.30
30889;DHT22;51092;50.874;7.024;2023-01-13T03:31:46;10.10;92.10
30889;DHT22;51092;50.874;7.024;2023-01-13T03:32:54;10.10;92.80
30889;DHT22;51092;50.874;7.024;2023-01-13T03:34:01;10.10;92.30
30889;DHT22;51092;50.874;7.024;2023-01-13T03:35:08;10.10;92.30
30889;DHT22;51092;50.874;7.024;2023-01-13T03:36:13;10.10;92.50
30889;DHT22;51092;50.874;7.024;2023-01-13T03:37:19;10.10;92.50
30889;DHT22;51092;50.874;7.024;2023-01-13T03:38:27;10.10;92.70
30889;DHT22;51092;50.874;7.024;2023-01-13T03:39:33;10.10;92.80
30889;DHT22;51092;50.874;7.024;2023-01-13T03:40:40;10.10;93.10
30889;DHT22;51092;50.874;7.024;2023-01-13T03:41:45;10.10;92.30
30889;DHT22;51092;50.874;7.024;2023-01-13T03:42:53;10.10;92.30
30889;DHT22;51092;50.874;7.024;2023-01-13T03:44:17;10.00;92.60
30889;DHT22;51092;50.874;7.024;2023-01-13T03:45:23;10.00;93.30
30889;DHT22;51092;50.874;7.024;2023-01-13T03:46:28;9.90;92.00
30889;DHT22;51092;50.874;7.024;2023-01-13T03:47:35;9.90;92.10
30889;DHT22;51092;50.874;7.024;2023-01-13T03:48:44;9.90;92.00
30889;DHT22;51092;50.874;7.024;2023-01-13T03:49:51;9.90;92.10
30889;DHT22;51092;50.874;7.024;2023-01-13T03:50:56;10.00;92.00
30889;DHT22;51092;50.874;7.024;2023-01-13T03:52:03;10.00;92.70
30889;DHT22;51092;50.874;7.024;2023-01-13T03:53:09;10.00;92.70
30889;DHT22;51092;50.874;7.024;2023-01-13T03:54:15;10.10;92.40
30889;DHT22;51092;50.874;7.024;2023-01-13T03:55:21;10.10;92.10
30889;DHT22;51092;50.874;7.024;2023-01-13T03:56:28;10.10;92.40
30889;DHT22;51092;50.874;7.024;2023-01-13T03:57:33;10.10;92.30
30889;DHT22;51092;50.874;7.024;2023-01-13T03:58:39;10.00;92.50
30889;DHT22;51092;50.874;7.024;2023-01-13T03:59:45;10.00;92.90
30889;DHT22;51092;50.874;7.024;2023-01-13T04:00:53;10.00;93.10
30889;DHT22;51092;50.874;7.024;2023-01-13T04:02:00;10.00;93.30
30889;DHT22;51092;50.874;7.024;2023-01-13T04:03:06;10.00;93.00
30889;DHT22;51092;50.874;7.024;2023-01-13T04:04:13;10.00;93.20
30889;DHT22;51092;50.874;7.024;2023-01-13T04:05:18;10.00;92.80
30889;DHT22;51092;50.874;7.024;2023-01-13T04:06:26;9.90;93.40
30889;DHT22;51092;50.874;7.024;2023-01-13T04:07:36;9.90;92.90
30889;DHT22;51092;50.874;7.024;2023-01-13T04:08:48;9.90;93.60
30889;DHT22;51092;50.874;7.024;2023-01-13T04:09:54;9.90;93.50
30889;DHT22;51092;50.874;7.024;2023-01-13T04:11:01;9.90;93.60
30889;DHT22;51092;50.874;7.024;2023-01-13T04:12:09;9.90;93.90
30889;DHT22;51092;50.874;7.024;2023-01-13T04:13:15;9.90;93.20
30889;DHT22;51092;50.874;7.024;2023-01-13T04:14:18;9.80;94.00
30889;DHT22;51092;50.874;7.024;2023-01-13T04:15:23;9.80;94.00
30889;DHT22;51092;50.874;7.024;2023-01-13T04:16:27;9.80;93.90
30889;DHT22;51092;50.874;7.024;2023-01-13T04:17:31;9.70;94.50
30889;DHT22;51092;50.874;7.024;2023-01-13T04:18:36;9.70;94.50
30889;DHT22;51092;50.874;7.024;2023-01-13T04:19:40;9.70;94.10
30889;DHT22;51092;50.874;7.024;2023-01-13T04:20:43;9.70;94.40
30889;DHT22;51092;50.874;7.024;2023-01-13T04:21:45;9.70;94.30
30889;DHT22;51092;50.874;7.024;2023-01-13T04:22:48;9.60;95.10
30889;DHT22;51092;50.874;7.024;2023-01-13T04:23:50;9.60;94.90
30889;DHT22;51092;50.874;7.024;2023-01-13T04:24:54;9.60;95.60
30889;DHT22;51092;50.874;7.024;2023-01-13T04:25:55;9.60;95.60
30889;DHT22;51092;50.874;7.024;2023-01-13T04:26:58;9.60;95.30
30889;DHT22;51092;50.874;7.024;2023-01-13T04:27:59;9.50;94.80
30889;DHT22;51092;50.874;7.024;2023-01-13T04:29:02;9.50;95.60
30889;DHT22;51092;50.874;7.024;2023-01-13T04:30:06;9.40;96.70
30889;DHT22;51092;50.874;7.024;2023-01-13T04:31:07;9.40;96.40
30889;DHT22;51092;50.874;7.024;2023-01-13T04:32:10;9.40;96.60
30889;DHT22;51092;50.874;7.024;2023-01-13T04:33:12;9.40;96.40
30889;DHT22;51092;50.874;7.024;2023-01-13T04:34:15;9.40;96.30
30889;DHT22;51092;50.874;7.024;2023-01-13T04:35:18;9.40;96.30
30889;DHT22;51092;50.874;7.024;2023-01-13T04:36:20;9.40;96.20
30889;DHT22;51092;50.874;7.024;2023-01-13T04:37:25;9.40;96.30
30889;DHT22;51092;50.874;7.024;2023-01-13T04:38:26;9.40;96.60
30889;DHT22;51092;50.874;7.024;2023-01-13T04:39:29;9.40;96.40
30889;DHT22;51092;50.874;7.024;2023-01-13T04:40:30;9.30;96.70
30889;DHT22;51092;50.874;7.024;2023-01-13T04:41:33;9.30;96.90
30889;DHT22;51092;50.874;7.024;2023-01-13T04:42:49;9.30;96.90
30889;DHT22;51092;50.874;7.024;2023-01-13T04:43:52;9.30;97.50
30889;DHT22;51092;50.874;7.024;2023-01-13T04:44:53;9.30;97.00
30889;DHT22;51092;50.874;7.024;2023-01-13T04:45:56;9.30;96.60
30889;DHT22;51092;50.874;7.024;2023-01-13T04:46:59;9.30;96.60
30889;DHT22;51092;50.874;7.024;2023-01-13T04:48:01;9.20;97.40
30889;DHT22;51092;50.874;7.024;2023-01-13T04:49:03;9.20;97.50
30889;DHT22;51092;50.874;7.024;2023-01-13T04:50:05;9.20;98.30
30889;DHT22;51092;50.874;7.024;2023-01-13T04:51:09;9.20;99.40
30889;DHT22;51092;50.874;7.024;2023-01-13T04:52:11;9.20;98.40
30889;DHT22;51092;50.874;7.024;2023-01-13T04:53:13;9.20;98.30
30889;DHT22;51092;50.874;7.024;2023-01-13T04:54:14;9.20;98.40
30889;DHT22;51092;50.874;7.024;2023-01-13T04:55:18;9.20;98.40
30889;DHT22;51092;50.874;7.024;2023-01-13T04:56:20;9.20;99.20
30889;DHT22;51092;50.874;7.024;2023-01-13T04:57:22;9.20;99.50
30889;DHT22;51092;50.874;7.024;2023-01-13T04:58:24;9.20;99.60
30889;DHT22;51092;50.874;7.024;2023-01-13T04:59:26;9.20;99.70
30889;DHT22;51092;50.874;7.024;2023-01-13T05:00:28;9.10;99.90
30889;DHT22;51092;50.874;7.024;2023-01-13T05:01:31;9.10;99.90
30889;DHT22;51092;50.874;7.024;2023-01-13T05:02:32;9.10;99.90
30889;DHT22;51092;50.874;7.024;2023-01-13T05:03:34;9.00;99.90
30889;DHT22;51092;50.874;7.024;2023-01-13T05:04:36;9.00;99.90
30889;DHT22;51092;50.874;7.024;2023-01-13T05:05:38;9.00;99.90
30889;DHT22;51092;50.874;7.024;2023-01-13T05:06:41;9.10;99.90
30889;DHT22;51092;50.874;7.024;2023-01-13T05:07:44;9.10;99.90
30889;DHT22;51092;50.874;7.024;2023-01-13T05:08:45;9.10;99.90
30889;DHT22;51092;50.874;7.024;2023-01-13T05:09:48;9.10;99.90
30889;DHT22;51092;50.874;7.024;2023-01-13T05:10:49;9.00;99.90
30889;DHT22;51092;50.874;7.024;2023-01-13T05:11:52;9.00;99.90
30889;DHT22;51092;50.874;7.024;2023-01-13T05:13:12;9.00;99.90
30889;DHT22;51092;50.874;7.024;2023-01-13T05:14:32;9.00;99.90
30889;DHT22;51092;50.874;7.024;2023-01-13T05:15:52;9.00;99.90
30889;DHT22;51092;50.874;7.024;2023-01-13T05:17:17;9.00;99.90
30889;DHT22;51092;50.874;7.024;2023-01-13T05:18:21;9.00;99.90
30889;DHT22;51092;50.874;7.024;2023-01-13T05:19:22;9.00;99.90
30889;DHT22;51092;50.874;7.024;2023-01-13T05:20:25;9.00;99.90
30889;DHT22;51092;50.874;7.024;2023-01-13T05:21:26;9.00;99.90
30889;DHT22;51092;50.874;7.024;2023-01-13T05:22:47;9.00;99.90
30889;DHT22;51092;50.874;7.024;2023-01-13T05:24:08;9.00;99.90
30889;DHT22;51092;50.874;7.024;2023-01-13T05:25:28;8.90;99.90
30889;DHT22;51092;50.874;7.024;2023-01-13T05:26:31;8.90;99.90
30889;DHT22;51092;50.874;7.024;2023-01-13T05:27:32;8.90;99.90
30889;DHT22;51092;50.874;7.024;2023-01-13T05:28:35;8.80;99.90
30889;DHT22;51092;50.874;7.024;2023-01-13T05:29:38;8.90;99.90
30889;DHT22;51092;50.874;7.024;2023-01-13T05:30:41;8.80;99.90
30889;DHT22;51092;50.874;7.024;2023-01-13T05:31:44;8.80;99.90
30889;DHT22;51092;50.874;7.024;2023-01-13T05:32:46;8.90;99.90
30889;DHT22;51092;50.874;7.024;2023-01-13T05:33:48;8.80;99.90
30889;DHT22;51092;50.874;7.024;2023-01-13T05:34:50;8.80;99.90
30889;DHT22;51092;50.874;7.024;2023-01-13T05:35:52;8.80;99.90
30889;DHT22;51092;50.874;7.024;2023-01-13T05:36:54;8.90;99.90
30889;DHT22;51092;50.874;7.024;2023-01-13T05:37:58;8.90;99.90
30889;DHT22;51092;50.874;7.024;2023-01-13T05:38:59;8.80;99.90
30889;DHT22;51092;50.874;7.024;2023-01-13T05:40:02;8.90;99.90
30889;DHT22;51092;50.874;7.024;2023-01-13T05:41:22;8.90;99.90
30889;DHT22;51092;50.874;7.024;2023-01-13T05:42:42;8.90;99.90
30889;DHT22;51092;50.874;7.024;2023-01-13T05:44:03;8.90;99.90
30889;DHT22;51092;50.874;7.024;2023-01-13T05:45:06;8.90;99.90
30889;DHT22;51092;50.874;7.024;2023-01-13T05:46:08;9.00;99.90
30889;DHT22;51092;50.874;7.024;2023-01-13T05:47:11;8.90;99.90
30889;DHT22;51092;50.874;7.024;2023-01-13T05:48:13;9.00;99.90
30889;DHT22;51092;50.874;7.024;2023-01-13T05:49:16;9.00;98.80
30889;DHT22;51092;50.874;7.024;2023-01-13T05:50:18;9.10;99.90
30889;DHT22;51092;50.874;7.024;2023-01-13T05:51:20;9.10;97.90
30889;DHT22;51092;50.874;7.024;2023-01-13T05:52:26;9.20;96.70
30889;DHT22;51092;50.874;7.024;2023-01-13T05:53:29;9.20;96.40
30889;DHT22;51092;50.874;7.024;2023-01-13T05:54:32;9.20;96.60
30889;DHT22;51092;50.874;7.024;2023-01-13T05:55:33;9.30;96.50
30889;DHT22;51092;50.874;7.024;2023-01-13T05:56:36;9.30;96.20
30889;DHT22;51092;50.874;7.024;2023-01-13T05:57:38;9.30;96.70
30889;DHT22;51092;50.874;7.024;2023-01-13T05:58:40;9.40;95.90
30889;DHT22;51092;50.874;7.024;2023-01-13T05:59:42;9.40;95.40
30889;DHT22;51092;50.874;7.024;2023-01-13T06:00:44;9.40;95.60
30889;DHT22;51092;50.874;7.024;2023-01-13T06:01:46;9.40;95.50
30889;DHT22;51092;50.874;7.024;2023-01-13T06:02:48;9.40;95.50
30889;DHT22;51092;50.874;7.024;2023-01-13T06:03:50;9.40;95.70
30889;DHT22;51092;50.874;7.024;2023-01-13T06:04:53;9.50;95.10
30889;DHT22;51092;50.874;7.024;2023-01-13T06:05:55;9.50;94.40
30889;DHT22;51092;50.874;7.024;2023-01-13T06:06:59;9.50;94.50
30889;DHT22;51092;50.874;7.024;2023-01-13T06:08:02;9.50;94.50
30889;DHT22;51092;50.874;7.024;2023-01-13T06:09:06;9.50;94.80
30889;DHT22;51092;50.874;7.024;2023-01-13T06:10:09;9.50;94.70
30889;DHT22;51092;50.874;7.024;2023-01-13T06:11:11;9.50;94.60
30889;DHT22;51092;50.874;7.024;2023-01-13T06:12:13;9.50;94.50
30889;DHT22;51092;50.874;7.024;2023-01-13T06:13:16;9.50;94.50
30889;DHT22;51092;50.874;7.024;2023-01-13T06:14:18;9.40;94.50
30889;DHT22;51092;50.874;7.024;2023-01-13T06:15:20;9.40;94.80
30889;DHT22;51092;50.874;7.024;2023-01-13T06:16:23;9.30;95.10
30889;DHT22;51092;50.874;7.024;2023-01-13T06:17:24;9.30;95.10
30889;DHT22;51092;50.874;7.024;2023-01-13T06:18:26;9.40;94.90
30889;DHT22;51092;50.874;7.024;2023-01-13T06:19:29;9.30;94.90
30889;DHT22;51092;50.874;7.024;2023-01-13T06:20:31;9.30;95.50
30889;DHT22;51092;50.874;7.024;2023-01-13T06:21:34;9.30;95.60
30889;DHT22;51092;50.874;7.024;2023-01-13T06:22:38;9.30;95.20
30889;DHT22;51092;50.874;7.024;2023-01-13T06:23:41;9.30;95.20
30889;DHT22;51092;50.874;7.024;2023-01-13T06:24:44;9.30;95.90
30889;DHT22;51092;50.874;7.024;2023-01-13T06:25:52;9.30;96.40
30889;DHT22;51092;50.874;7.024;2023-01-13T06:26:57;9.30;96.20
30889;DHT22;51092;50.874;7.024;2023-01-13T06:27:59;9.30;95.50
30889;DHT22;51092;50.874;7.024;2023-01-13T06:29:02;9.30;95.70
30889;DHT22;51092;50.874;7.024;2023-01-13T06:30:04;9.30;95.90
30889;DHT22;51092;50.874;7.024;2023-01-13T06:31:07;9.30;95.80
30889;DHT22;51092;50.874;7.024;2023-01-13T06:32:13;9.40;95.30
30889;DHT22;51092;50.874;7.024;2023-01-13T06:33:19;9.40;94.90
30889;DHT22;51092;50.874;7.024;2023-01-13T06:34:23;9.50;95.10
30889;DHT22;51092;50.874;7.024;2023-01-13T06:35:27;9.50;94.90
30889;DHT22;51092;50.874;7.024;2023-01-13T06:36:34;9.50;95.10
30889;DHT22;51092;50.874;7.024;2023-01-13T06:37:37;9.50;94.90
30889;DHT22;51092;50.874;7.024;2023-01-13T06:38:42;9.50;95.10
30889;DHT22;51092;50.874;7.024;2023-01-13T06:39:47;9.50;95.10
30889;DHT22;51092;50.874;7.024;2023-01-13T06:40:50;9.50;94.50
30889;DHT22;51092;50.874;7.024;2023-01-13T06:41:53;9.50;94.70
30889;DHT22;51092;50.874;7.024;2023-01-13T06:43:13;9.60;94.90
30889;DHT22;51092;50.874;7.024;2023-01-13T06:44:16;9.60;95.40
30889;DHT22;51092;50.874;7.024;2023-01-13T06:45:19;9.60;94.20
30889;DHT22;51092;50.874;7.024;2023-01-13T06:46:21;9.60;94.30
30889;DHT22;51092;50.874;7.024;2023-01-13T06:47:24;9.60;94.20
30889;DHT22;51092;50.874;7.024;2023-01-13T06:48:27;9.60;94.30
30889;DHT22;51092;50.874;7.024;2023-01-13T06:49:33;9.60;94.00
30889;DHT22;51092;50.874;7.024;2023-01-13T06:50:34;9.70;94.30
30889;DHT22;51092;50.874;7.024;2023-01-13T06:51:37;9.60;94.20
30889;DHT22;51092;50.874;7.024;2023-01-13T06:52:38;9.60;93.30
30889;DHT22;51092;50.874;7.024;2023-01-13T06:53:40;9.60;93.00
30889;DHT22;51092;50.874;7.024;2023-01-13T06:54:43;9.70;93.20
30889;DHT22;51092;50.874;7.024;2023-01-13T06:55:46;9.70;93.50
30889;DHT22;51092;50.874;7.024;2023-01-13T06:56:48;9.70;93.10
30889;DHT22;51092;50.874;7.024;2023-01-13T06:57:51;9.80;92.80
30889;DHT22;51092;50.874;7.024;2023-01-13T06:58:54;9.70;92.40
30889;DHT22;51092;50.874;7.024;2023-01-13T06:59:55;9.70;92.40